KMFE

Mc Allen Miller International Airport

Mc Allen, Texas, USA
METAR KMFE 231353Z 00000KT 3/4SM BR OVC003 16/16 A3013 RMK AO2 SLP200 T01610161
Observed Flight Rules
Feb-23 @ 13:53 UTC (43 minutes ago) Instrument Flight Rules
Wind Visibility Clouds Conditions
Calm 3/4 miles
  • Overcast at 300' AGL
  • Mist
Temperatures Readings
Current 16°C / 61°F
Dewpoint 16°C / 61°F
Humidity 100%
Altimeter 30.13" Hg
Pressure 1020 hPa
Elevation 38
METAR KMFE 231353Z 00000KT 3/4SM BR OVC003 16/16 A3013 RMK AO2 SLP200 T01610161
Observed Flight Rules
Feb-23 @ 13:53 UTC
(43 minutes ago)
LIFR
Wind Visibility
Calm 3/4 miles
Clouds
  • Overcast at 300' AGL
Conditions
  • Mist
Temperature Dewpoint
16°C / 61°F 16°C / 61°F
Humidity Altimeter Pressure
100% 30.13" Hg 1020 hPa